sensor_id;sensor_type;location;lat;lon;timestamp;temperature;humidity
20866;DHT22;10593;48.398;10.698;2022-07-26T00:01:25;30.40;38.30
20866;DHT22;10593;48.398;10.698;2022-07-26T00:03:52;30.40;38.50
20866;DHT22;10593;48.398;10.698;2022-07-26T00:06:18;30.30;38.70
20866;DHT22;10593;48.398;10.698;2022-07-26T00:08:44;30.30;38.80
20866;DHT22;10593;48.398;10.698;2022-07-26T00:11:11;30.30;38.80
20866;DHT22;10593;48.398;10.698;2022-07-26T00:13:37;30.30;38.90
20866;DHT22;10593;48.398;10.698;2022-07-26T00:16:03;30.30;39.00
20866;DHT22;10593;48.398;10.698;2022-07-26T00:18:29;30.20;39.30
20866;DHT22;10593;48.398;10.698;2022-07-26T00:20:54;30.20;39.60
20866;DHT22;10593;48.398;10.698;2022-07-26T00:23:20;30.10;39.60
20866;DHT22;10593;48.398;10.698;2022-07-26T00:25:46;30.10;40.00
20866;DHT22;10593;48.398;10.698;2022-07-26T00:28:12;30.10;40.30
20866;DHT22;10593;48.398;10.698;2022-07-26T00:30:38;30.00;40.40
20866;DHT22;10593;48.398;10.698;2022-07-26T00:33:05;30.00;40.40
20866;DHT22;10593;48.398;10.698;2022-07-26T00:35:31;30.00;40.50
20866;DHT22;10593;48.398;10.698;2022-07-26T00:37:58;29.90;40.60
20866;DHT22;10593;48.398;10.698;2022-07-26T00:40:25;29.90;40.60
20866;DHT22;10593;48.398;10.698;2022-07-26T00:42:50;29.80;40.90
20866;DHT22;10593;48.398;10.698;2022-07-26T00:45:16;29.80;41.10
20866;DHT22;10593;48.398;10.698;2022-07-26T00:47:43;29.80;41.50
20866;DHT22;10593;48.398;10.698;2022-07-26T00:50:11;29.80;41.80
20866;DHT22;10593;48.398;10.698;2022-07-26T00:52:41;29.70;41.60
20866;DHT22;10593;48.398;10.698;2022-07-26T00:55:08;29.70;41.80
20866;DHT22;10593;48.398;10.698;2022-07-26T00:57:34;29.70;42.00
20866;DHT22;10593;48.398;10.698;2022-07-26T01:00:05;29.60;42.00
20866;DHT22;10593;48.398;10.698;2022-07-26T01:02:33;29.70;42.30
20866;DHT22;10593;48.398;10.698;2022-07-26T01:04:58;29.60;42.20
20866;DHT22;10593;48.398;10.698;2022-07-26T01:07:24;29.60;42.20
20866;DHT22;10593;48.398;10.698;2022-07-26T01:09:50;29.50;42.50
20866;DHT22;10593;48.398;10.698;2022-07-26T01:12:15;29.50;42.70
20866;DHT22;10593;48.398;10.698;2022-07-26T01:14:43;29.50;42.70
20866;DHT22;10593;48.398;10.698;2022-07-26T01:17:10;29.50;42.80
20866;DHT22;10593;48.398;10.698;2022-07-26T01:19:37;29.40;42.80
20866;DHT22;10593;48.398;10.698;2022-07-26T01:22:03;29.50;42.90
20866;DHT22;10593;48.398;10.698;2022-07-26T01:24:28;29.40;42.90
20866;DHT22;10593;48.398;10.698;2022-07-26T01:26:54;29.40;42.10
20866;DHT22;10593;48.398;10.698;2022-07-26T01:29:21;29.40;41.40
20866;DHT22;10593;48.398;10.698;2022-07-26T01:31:48;29.40;40.30
20866;DHT22;10593;48.398;10.698;2022-07-26T01:34:14;29.40;39.60
20866;DHT22;10593;48.398;10.698;2022-07-26T01:36:40;29.30;38.70
20866;DHT22;10593;48.398;10.698;2022-07-26T01:39:06;29.30;38.30
20866;DHT22;10593;48.398;10.698;2022-07-26T01:41:32;29.30;38.00
20866;DHT22;10593;48.398;10.698;2022-07-26T01:43:58;29.30;37.90
20866;DHT22;10593;48.398;10.698;2022-07-26T01:46:23;29.40;37.90
20866;DHT22;10593;48.398;10.698;2022-07-26T01:48:50;29.30;37.90
20866;DHT22;10593;48.398;10.698;2022-07-26T01:51:16;29.30;38.40
20866;DHT22;10593;48.398;10.698;2022-07-26T01:53:42;29.30;39.40
20866;DHT22;10593;48.398;10.698;2022-07-26T01:56:12;29.30;39.70
20866;DHT22;10593;48.398;10.698;2022-07-26T01:58:39;29.30;40.20
20866;DHT22;10593;48.398;10.698;2022-07-26T02:01:06;29.30;40.50
20866;DHT22;10593;48.398;10.698;2022-07-26T02:03:32;29.30;40.90
20866;DHT22;10593;48.398;10.698;2022-07-26T02:05:58;29.30;41.50
20866;DHT22;10593;48.398;10.698;2022-07-26T02:08:23;29.20;42.00
20866;DHT22;10593;48.398;10.698;2022-07-26T02:10:50;29.20;42.50
20866;DHT22;10593;48.398;10.698;2022-07-26T02:13:36;29.20;42.70
20866;DHT22;10593;48.398;10.698;2022-07-26T02:16:05;29.10;42.80
20866;DHT22;10593;48.398;10.698;2022-07-26T02:18:35;29.10;43.60
20866;DHT22;10593;48.398;10.698;2022-07-26T02:21:08;29.10;43.10
20866;DHT22;10593;48.398;10.698;2022-07-26T02:23:34;29.10;43.30
20866;DHT22;10593;48.398;10.698;2022-07-26T02:26:00;29.00;43.20
20866;DHT22;10593;48.398;10.698;2022-07-26T02:28:26;29.00;43.30
20866;DHT22;10593;48.398;10.698;2022-07-26T02:30:53;29.00;43.40
20866;DHT22;10593;48.398;10.698;2022-07-26T02:33:19;29.00;43.60
20866;DHT22;10593;48.398;10.698;2022-07-26T02:35:46;28.90;43.40
20866;DHT22;10593;48.398;10.698;2022-07-26T02:38:15;28.90;43.40
20866;DHT22;10593;48.398;10.698;2022-07-26T02:40:41;28.80;43.50
20866;DHT22;10593;48.398;10.698;2022-07-26T02:43:08;28.80;43.20
20866;DHT22;10593;48.398;10.698;2022-07-26T02:45:34;28.70;43.20
20866;DHT22;10593;48.398;10.698;2022-07-26T02:48:01;28.70;43.10
20866;DHT22;10593;48.398;10.698;2022-07-26T02:50:28;28.70;43.20
20866;DHT22;10593;48.398;10.698;2022-07-26T02:52:54;28.70;42.90
20866;DHT22;10593;48.398;10.698;2022-07-26T02:55:23;28.70;42.80
20866;DHT22;10593;48.398;10.698;2022-07-26T02:57:50;28.60;42.50
20866;DHT22;10593;48.398;10.698;2022-07-26T03:00:19;28.60;42.40
20866;DHT22;10593;48.398;10.698;2022-07-26T03:02:47;28.60;42.20
20866;DHT22;10593;48.398;10.698;2022-07-26T03:05:16;28.50;42.10
20866;DHT22;10593;48.398;10.698;2022-07-26T03:07:42;28.50;42.20
20866;DHT22;10593;48.398;10.698;2022-07-26T03:10:08;28.50;42.20
20866;DHT22;10593;48.398;10.698;2022-07-26T03:12:34;28.50;42.10
20866;DHT22;10593;48.398;10.698;2022-07-26T03:14:59;28.50;41.80
20866;DHT22;10593;48.398;10.698;2022-07-26T03:17:25;28.50;41.90
20866;DHT22;10593;48.398;10.698;2022-07-26T03:19:51;28.50;42.40
20866;DHT22;10593;48.398;10.698;2022-07-26T03:22:17;28.50;42.90
20866;DHT22;10593;48.398;10.698;2022-07-26T03:24:42;28.40;43.20
20866;DHT22;10593;48.398;10.698;2022-07-26T03:27:08;28.40;43.30
20866;DHT22;10593;48.398;10.698;2022-07-26T03:29:34;28.40;43.40
20866;DHT22;10593;48.398;10.698;2022-07-26T03:32:00;28.40;43.30
20866;DHT22;10593;48.398;10.698;2022-07-26T03:34:25;28.40;43.20
20866;DHT22;10593;48.398;10.698;2022-07-26T03:36:51;28.30;43.30
20866;DHT22;10593;48.398;10.698;2022-07-26T03:39:17;28.30;43.80
20866;DHT22;10593;48.398;10.698;2022-07-26T03:41:42;28.30;43.30
20866;DHT22;10593;48.398;10.698;2022-07-26T03:44:08;28.20;43.40
20866;DHT22;10593;48.398;10.698;2022-07-26T03:46:33;28.20;43.60
20866;DHT22;10593;48.398;10.698;2022-07-26T03:48:59;28.20;43.80
20866;DHT22;10593;48.398;10.698;2022-07-26T03:51:25;28.20;44.00
20866;DHT22;10593;48.398;10.698;2022-07-26T03:53:50;28.20;44.20
20866;DHT22;10593;48.398;10.698;2022-07-26T03:56:16;28.10;44.20
20866;DHT22;10593;48.398;10.698;2022-07-26T03:58:59;28.10;44.50
20866;DHT22;10593;48.398;10.698;2022-07-26T04:01:27;28.10;44.70
20866;DHT22;10593;48.398;10.698;2022-07-26T04:03:53;28.00;44.70
20866;DHT22;10593;48.398;10.698;2022-07-26T04:06:18;28.00;44.90
20866;DHT22;10593;48.398;10.698;2022-07-26T04:08:44;28.00;44.90
20866;DHT22;10593;48.398;10.698;2022-07-26T04:11:10;28.00;44.90
20866;DHT22;10593;48.398;10.698;2022-07-26T04:13:35;28.00;44.90
20866;DHT22;10593;48.398;10.698;2022-07-26T04:16:02;28.00;45.20
20866;DHT22;10593;48.398;10.698;2022-07-26T04:18:28;28.00;45.70
20866;DHT22;10593;48.398;10.698;2022-07-26T04:20:54;27.90;46.50
20866;DHT22;10593;48.398;10.698;2022-07-26T04:23:20;27.90;46.60
20866;DHT22;10593;48.398;10.698;2022-07-26T04:25:45;27.90;47.40
20866;DHT22;10593;48.398;10.698;2022-07-26T04:28:12;27.90;47.00
20866;DHT22;10593;48.398;10.698;2022-07-26T04:30:38;27.90;47.00
20866;DHT22;10593;48.398;10.698;2022-07-26T04:33:04;27.90;47.20
20866;DHT22;10593;48.398;10.698;2022-07-26T04:35:31;27.90;47.30
20866;DHT22;10593;48.398;10.698;2022-07-26T04:37:57;27.90;47.50
20866;DHT22;10593;48.398;10.698;2022-07-26T04:40:23;27.90;47.40
20866;DHT22;10593;48.398;10.698;2022-07-26T04:42:51;27.90;47.20
20866;DHT22;10593;48.398;10.698;2022-07-26T04:45:17;27.80;46.70
20866;DHT22;10593;48.398;10.698;2022-07-26T04:47:45;27.80;46.60
20866;DHT22;10593;48.398;10.698;2022-07-26T04:50:14;27.80;46.60
20866;DHT22;10593;48.398;10.698;2022-07-26T04:52:41;27.70;46.50
20866;DHT22;10593;48.398;10.698;2022-07-26T04:55:08;27.70;46.50
20866;DHT22;10593;48.398;10.698;2022-07-26T04:57:35;27.70;46.20
20866;DHT22;10593;48.398;10.698;2022-07-26T05:00:07;27.70;46.20
20866;DHT22;10593;48.398;10.698;2022-07-26T05:02:34;27.70;46.10
20866;DHT22;10593;48.398;10.698;2022-07-26T05:05:00;27.70;46.40
20866;DHT22;10593;48.398;10.698;2022-07-26T05:07:26;27.70;46.30
20866;DHT22;10593;48.398;10.698;2022-07-26T05:09:52;27.60;46.20
20866;DHT22;10593;48.398;10.698;2022-07-26T05:12:18;27.60;46.10
20866;DHT22;10593;48.398;10.698;2022-07-26T05:14:43;27.60;45.90
20866;DHT22;10593;48.398;10.698;2022-07-26T05:17:10;27.60;45.60
20866;DHT22;10593;48.398;10.698;2022-07-26T05:19:36;27.60;45.60
20866;DHT22;10593;48.398;10.698;2022-07-26T05:22:02;27.60;45.80
20866;DHT22;10593;48.398;10.698;2022-07-26T05:24:28;27.60;46.10
20866;DHT22;10593;48.398;10.698;2022-07-26T05:26:53;27.50;46.30
20866;DHT22;10593;48.398;10.698;2022-07-26T05:29:19;27.50;46.10
20866;DHT22;10593;48.398;10.698;2022-07-26T05:31:45;27.60;46.10
20866;DHT22;10593;48.398;10.698;2022-07-26T05:34:11;27.50;46.20
20866;DHT22;10593;48.398;10.698;2022-07-26T05:36:37;27.50;46.20
20866;DHT22;10593;48.398;10.698;2022-07-26T05:39:03;27.40;46.20
20866;DHT22;10593;48.398;10.698;2022-07-26T05:41:29;27.40;46.20
20866;DHT22;10593;48.398;10.698;2022-07-26T05:43:54;27.40;46.60
20866;DHT22;10593;48.398;10.698;2022-07-26T05:46:20;27.40;46.90
20866;DHT22;10593;48.398;10.698;2022-07-26T05:48:45;27.30;46.80
20866;DHT22;10593;48.398;10.698;2022-07-26T05:51:11;27.30;47.20
20866;DHT22;10593;48.398;10.698;2022-07-26T05:53:37;27.30;47.20
20866;DHT22;10593;48.398;10.698;2022-07-26T05:56:03;27.20;47.40
20866;DHT22;10593;48.398;10.698;2022-07-26T05:58:29;27.20;47.40
20866;DHT22;10593;48.398;10.698;2022-07-26T06:00:55;27.20;47.50
20866;DHT22;10593;48.398;10.698;2022-07-26T06:03:21;27.20;47.60
20866;DHT22;10593;48.398;10.698;2022-07-26T06:05:52;27.20;47.50
20866;DHT22;10593;48.398;10.698;2022-07-26T06:08:19;27.20;47.70
20866;DHT22;10593;48.398;10.698;2022-07-26T06:10:46;27.10;47.60
20866;DHT22;10593;48.398;10.698;2022-07-26T06:13:13;27.10;47.40
20866;DHT22;10593;48.398;10.698;2022-07-26T06:15:40;27.10;47.90
20866;DHT22;10593;48.398;10.698;2022-07-26T06:18:06;27.10;47.90
20866;DHT22;10593;48.398;10.698;2022-07-26T06:20:32;27.20;48.00
20866;DHT22;10593;48.398;10.698;2022-07-26T06:22:58;27.10;47.90
20866;DHT22;10593;48.398;10.698;2022-07-26T06:25:25;27.10;47.90
20866;DHT22;10593;48.398;10.698;2022-07-26T06:27:52;27.10;47.90
20866;DHT22;10593;48.398;10.698;2022-07-26T06:30:17;27.10;47.90
20866;DHT22;10593;48.398;10.698;2022-07-26T06:32:43;27.10;47.80
20866;DHT22;10593;48.398;10.698;2022-07-26T06:35:10;27.10;47.80
20866;DHT22;10593;48.398;10.698;2022-07-26T06:37:37;27.10;47.90
20866;DHT22;10593;48.398;10.698;2022-07-26T06:40:07;27.10;47.90
20866;DHT22;10593;48.398;10.698;2022-07-26T06:42:34;27.10;47.90
20866;DHT22;10593;48.398;10.698;2022-07-26T06:45:01;27.10;47.30
20866;DHT22;10593;48.398;10.698;2022-07-26T06:47:28;27.10;47.30
20866;DHT22;10593;48.398;10.698;2022-07-26T06:49:53;27.10;47.50
20866;DHT22;10593;48.398;10.698;2022-07-26T06:52:19;27.10;47.50
20866;DHT22;10593;48.398;10.698;2022-07-26T06:54:45;27.10;47.30
20866;DHT22;10593;48.398;10.698;2022-07-26T06:57:10;27.10;47.50
20866;DHT22;10593;48.398;10.698;2022-07-26T06:59:36;27.20;47.70
20866;DHT22;10593;48.398;10.698;2022-07-26T07:02:03;27.10;47.10
20866;DHT22;10593;48.398;10.698;2022-07-26T07:04:30;27.10;47.10
20866;DHT22;10593;48.398;10.698;2022-07-26T07:06:58;27.20;47.30
20866;DHT22;10593;48.398;10.698;2022-07-26T07:09:30;27.20;47.00
20866;DHT22;10593;48.398;10.698;2022-07-26T07:11:57;27.20;46.60
20866;DHT22;10593;48.398;10.698;2022-07-26T07:14:22;27.20;46.30
20866;DHT22;10593;48.398;10.698;2022-07-26T07:16:48;27.20;46.20
20866;DHT22;10593;48.398;10.698;2022-07-26T07:19:14;27.30;46.00
20866;DHT22;10593;48.398;10.698;2022-07-26T07:21:39;27.30;46.00
20866;DHT22;10593;48.398;10.698;2022-07-26T07:24:06;27.40;46.00
20866;DHT22;10593;48.398;10.698;2022-07-26T07:26:32;27.50;45.90
20866;DHT22;10593;48.398;10.698;2022-07-26T07:28:57;27.50;46.00
20866;DHT22;10593;48.398;10.698;2022-07-26T07:31:24;27.60;46.00
20866;DHT22;10593;48.398;10.698;2022-07-26T07:33:50;27.70;45.50
20866;DHT22;10593;48.398;10.698;2022-07-26T07:36:16;27.80;45.30
20866;DHT22;10593;48.398;10.698;2022-07-26T07:38:44;27.90;45.00
20866;DHT22;10593;48.398;10.698;2022-07-26T07:41:09;28.00;45.20
20866;DHT22;10593;48.398;10.698;2022-07-26T07:43:35;28.10;44.80
20866;DHT22;10593;48.398;10.698;2022-07-26T07:46:01;28.20;44.20
20866;DHT22;10593;48.398;10.698;2022-07-26T07:48:26;28.40;43.80
20866;DHT22;10593;48.398;10.698;2022-07-26T07:50:52;28.40;43.50
20866;DHT22;10593;48.398;10.698;2022-07-26T07:53:18;28.50;43.40
20866;DHT22;10593;48.398;10.698;2022-07-26T07:55:43;28.50;42.90
20866;DHT22;10593;48.398;10.698;2022-07-26T07:58:09;28.60;42.80
20866;DHT22;10593;48.398;10.698;2022-07-26T08:00:34;28.60;42.70
20866;DHT22;10593;48.398;10.698;2022-07-26T08:03:00;28.60;42.40
20866;DHT22;10593;48.398;10.698;2022-07-26T08:05:26;28.70;42.40
20866;DHT22;10593;48.398;10.698;2022-07-26T08:07:51;28.60;42.20
20866;DHT22;10593;48.398;10.698;2022-07-26T08:10:17;28.70;42.30
20866;DHT22;10593;48.398;10.698;2022-07-26T08:12:43;28.60;42.50
20866;DHT22;10593;48.398;10.698;2022-07-26T08:15:09;28.60;42.80
20866;DHT22;10593;48.398;10.698;2022-07-26T08:17:35;28.50;43.00
20866;DHT22;10593;48.398;10.698;2022-07-26T08:20:01;28.50;43.30
20866;DHT22;10593;48.398;10.698;2022-07-26T08:22:27;28.50;43.50
20866;DHT22;10593;48.398;10.698;2022-07-26T08:24:53;28.40;43.60
20866;DHT22;10593;48.398;10.698;2022-07-26T08:27:18;28.40;43.90
20866;DHT22;10593;48.398;10.698;2022-07-26T08:29:44;28.30;44.10
20866;DHT22;10593;48.398;10.698;2022-07-26T08:32:10;28.20;44.30
20866;DHT22;10593;48.398;10.698;2022-07-26T08:34:35;28.20;44.60
20866;DHT22;10593;48.398;10.698;2022-07-26T08:37:01;28.10;44.90
20866;DHT22;10593;48.398;10.698;2022-07-26T08:39:27;28.10;45.10
20866;DHT22;10593;48.398;10.698;2022-07-26T08:41:53;28.00;45.20
20866;DHT22;10593;48.398;10.698;2022-07-26T08:44:19;28.00;45.10
20866;DHT22;10593;48.398;10.698;2022-07-26T08:46:44;28.00;44.90
20866;DHT22;10593;48.398;10.698;2022-07-26T08:49:11;27.90;45.10
20866;DHT22;10593;48.398;10.698;2022-07-26T08:51:40;27.90;45.40
20866;DHT22;10593;48.398;10.698;2022-07-26T08:54:13;27.80;45.70
20866;DHT22;10593;48.398;10.698;2022-07-26T08:56:47;27.80;45.80
20866;DHT22;10593;48.398;10.698;2022-07-26T08:59:16;27.70;45.60
20866;DHT22;10593;48.398;10.698;2022-07-26T09:04:29;27.70;45.90
20866;DHT22;10593;48.398;10.698;2022-07-26T09:07:14;27.70;45.60
20866;DHT22;10593;48.398;10.698;2022-07-26T09:09:58;27.60;45.80
20866;DHT22;10593;48.398;10.698;2022-07-26T09:12:27;27.60;46.00
20866;DHT22;10593;48.398;10.698;2022-07-26T09:14:54;27.60;46.10
20866;DHT22;10593;48.398;10.698;2022-07-26T09:17:22;27.60;46.00
20866;DHT22;10593;48.398;10.698;2022-07-26T09:20:09;27.60;45.90
20866;DHT22;10593;48.398;10.698;2022-07-26T09:22:54;27.60;45.90
20866;DHT22;10593;48.398;10.698;2022-07-26T09:25:31;27.60;45.70
20866;DHT22;10593;48.398;10.698;2022-07-26T09:28:03;27.60;45.70
20866;DHT22;10593;48.398;10.698;2022-07-26T09:30:54;27.60;45.50
20866;DHT22;10593;48.398;10.698;2022-07-26T09:33:46;27.70;45.80
20866;DHT22;10593;48.398;10.698;2022-07-26T09:36:13;27.70;44.60
20866;DHT22;10593;48.398;10.698;2022-07-26T09:38:40;27.70;44.70
20866;DHT22;10593;48.398;10.698;2022-07-26T09:43:45;27.80;44.60
20866;DHT22;10593;48.398;10.698;2022-07-26T09:46:11;27.80;44.60
20866;DHT22;10593;48.398;10.698;2022-07-26T09:48:37;27.80;44.50
20866;DHT22;10593;48.398;10.698;2022-07-26T09:51:05;27.80;44.10
20866;DHT22;10593;48.398;10.698;2022-07-26T09:53:43;27.90;44.00
20866;DHT22;10593;48.398;10.698;2022-07-26T09:56:10;27.90;43.90
20866;DHT22;10593;48.398;10.698;2022-07-26T09:58:37;27.90;44.20
20866;DHT22;10593;48.398;10.698;2022-07-26T10:01:06;28.00;44.20
20866;DHT22;10593;48.398;10.698;2022-07-26T10:03:33;28.00;43.70
20866;DHT22;10593;48.398;10.698;2022-07-26T10:06:01;28.00;43.60
20866;DHT22;10593;48.398;10.698;2022-07-26T10:08:28;28.00;43.70
20866;DHT22;10593;48.398;10.698;2022-07-26T10:11:04;28.00;43.30
20866;DHT22;10593;48.398;10.698;2022-07-26T10:13:33;28.00;43.10
20866;DHT22;10593;48.398;10.698;2022-07-26T10:15:59;28.10;43.20
20866;DHT22;10593;48.398;10.698;2022-07-26T10:21:17;28.10;43.30
20866;DHT22;10593;48.398;10.698;2022-07-26T10:24:02;28.10;42.90
20866;DHT22;10593;48.398;10.698;2022-07-26T10:31:48;28.10;41.80
20866;DHT22;10593;48.398;10.698;2022-07-26T10:34:30;28.10;41.80
20866;DHT22;10593;48.398;10.698;2022-07-26T10:37:02;28.10;41.80
20866;DHT22;10593;48.398;10.698;2022-07-26T10:39:33;28.10;41.90
20866;DHT22;10593;48.398;10.698;2022-07-26T10:44:36;28.10;41.30
20866;DHT22;10593;48.398;10.698;2022-07-26T10:49:44;28.10;41.00
20866;DHT22;10593;48.398;10.698;2022-07-26T10:52:29;28.10;41.30
20866;DHT22;10593;48.398;10.698;2022-07-26T10:57:22;28.10;41.40
20866;DHT22;10593;48.398;10.698;2022-07-26T10:59:48;28.10;41.30
20866;DHT22;10593;48.398;10.698;2022-07-26T11:02:21;28.20;41.30
20866;DHT22;10593;48.398;10.698;2022-07-26T11:04:48;28.20;41.30
20866;DHT22;10593;48.398;10.698;2022-07-26T11:07:14;28.30;41.40
20866;DHT22;10593;48.398;10.698;2022-07-26T11:09:40;28.40;41.50
20866;DHT22;10593;48.398;10.698;2022-07-26T11:12:16;28.40;41.70
20866;DHT22;10593;48.398;10.698;2022-07-26T11:14:43;28.50;42.20
20866;DHT22;10593;48.398;10.698;2022-07-26T11:17:24;28.50;41.80
20866;DHT22;10593;48.398;10.698;2022-07-26T11:19:52;28.50;41.20
20866;DHT22;10593;48.398;10.698;2022-07-26T11:22:18;28.50;40.70
20866;DHT22;10593;48.398;10.698;2022-07-26T11:24:44;28.50;39.20
20866;DHT22;10593;48.398;10.698;2022-07-26T11:27:10;28.60;38.80
20866;DHT22;10593;48.398;10.698;2022-07-26T11:29:37;28.60;38.90
20866;DHT22;10593;48.398;10.698;2022-07-26T11:32:05;28.70;38.40
20866;DHT22;10593;48.398;10.698;2022-07-26T11:34:33;28.70;38.20
20866;DHT22;10593;48.398;10.698;2022-07-26T11:37:01;28.70;38.10
20866;DHT22;10593;48.398;10.698;2022-07-26T11:39:32;28.80;37.80
20866;DHT22;10593;48.398;10.698;2022-07-26T11:42:04;28.70;37.50
20866;DHT22;10593;48.398;10.698;2022-07-26T11:44:32;28.80;37.20
20866;DHT22;10593;48.398;10.698;2022-07-26T11:47:01;28.80;36.90
20866;DHT22;10593;48.398;10.698;2022-07-26T11:49:36;28.80;36.80
20866;DHT22;10593;48.398;10.698;2022-07-26T11:52:02;28.90;36.50
20866;DHT22;10593;48.398;10.698;2022-07-26T11:54:48;28.90;36.30
20866;DHT22;10593;48.398;10.698;2022-07-26T11:57:16;28.90;36.20
20866;DHT22;10593;48.398;10.698;2022-07-26T11:59:44;28.90;36.20
20866;DHT22;10593;48.398;10.698;2022-07-26T12:02:11;28.90;36.20
20866;DHT22;10593;48.398;10.698;2022-07-26T12:04:40;28.90;36.20
20866;DHT22;10593;48.398;10.698;2022-07-26T12:07:10;28.90;35.50
20866;DHT22;10593;48.398;10.698;2022-07-26T12:09:51;29.00;35.20
20866;DHT22;10593;48.398;10.698;2022-07-26T12:12:21;29.00;35.20
20866;DHT22;10593;48.398;10.698;2022-07-26T12:15:01;29.00;35.20
20866;DHT22;10593;48.398;10.698;2022-07-26T12:17:29;29.00;34.90
20866;DHT22;10593;48.398;10.698;2022-07-26T12:19:55;29.00;34.80
20866;DHT22;10593;48.398;10.698;2022-07-26T12:22:35;29.00;34.70
20866;DHT22;10593;48.398;10.698;2022-07-26T12:25:00;29.00;34.60
20866;DHT22;10593;48.398;10.698;2022-07-26T12:27:31;29.00;34.50
20866;DHT22;10593;48.398;10.698;2022-07-26T12:32:31;29.00;34.10
20866;DHT22;10593;48.398;10.698;2022-07-26T12:35:15;29.00;33.70
20866;DHT22;10593;48.398;10.698;2022-07-26T12:40:20;29.00;33.30
20866;DHT22;10593;48.398;10.698;2022-07-26T12:45:27;29.00;33.00
20866;DHT22;10593;48.398;10.698;2022-07-26T12:47:55;29.10;32.90
20866;DHT22;10593;48.398;10.698;2022-07-26T12:50:24;29.00;32.90
20866;DHT22;10593;48.398;10.698;2022-07-26T12:52:58;29.10;32.70
20866;DHT22;10593;48.398;10.698;2022-07-26T12:55:26;29.10;32.40
20866;DHT22;10593;48.398;10.698;2022-07-26T12:57:51;29.20;32.30
20866;DHT22;10593;48.398;10.698;2022-07-26T13:00:17;29.20;32.00
20866;DHT22;10593;48.398;10.698;2022-07-26T13:02:44;29.30;32.00
20866;DHT22;10593;48.398;10.698;2022-07-26T13:05:11;29.20;31.40
20866;DHT22;10593;48.398;10.698;2022-07-26T13:07:38;29.30;31.60
20866;DHT22;10593;48.398;10.698;2022-07-26T13:10:05;29.30;31.30
20866;DHT22;10593;48.398;10.698;2022-07-26T13:12:33;29.30;31.30
20866;DHT22;10593;48.398;10.698;2022-07-26T13:14:59;29.30;31.30
20866;DHT22;10593;48.398;10.698;2022-07-26T13:17:25;29.30;31.20
20866;DHT22;10593;48.398;10.698;2022-07-26T13:19:50;29.30;31.20
20866;DHT22;10593;48.398;10.698;2022-07-26T13:22:16;29.30;31.40
20866;DHT22;10593;48.398;10.698;2022-07-26T13:24:42;29.30;31.40
20866;DHT22;10593;48.398;10.698;2022-07-26T13:27:07;29.30;31.40
20866;DHT22;10593;48.398;10.698;2022-07-26T13:29:34;29.30;31.40
20866;DHT22;10593;48.398;10.698;2022-07-26T13:32:02;29.30;31.60
20866;DHT22;10593;48.398;10.698;2022-07-26T13:34:29;29.30;31.40
20866;DHT22;10593;48.398;10.698;2022-07-26T13:36:55;29.30;30.90
20866;DHT22;10593;48.398;10.698;2022-07-26T13:39:22;29.40;30.80
20866;DHT22;10593;48.398;10.698;2022-07-26T13:41:48;29.40;30.70
20866;DHT22;10593;48.398;10.698;2022-07-26T13:44:14;29.40;30.80
20866;DHT22;10593;48.398;10.698;2022-07-26T13:46:39;29.40;30.90
20866;DHT22;10593;48.398;10.698;2022-07-26T13:49:05;29.40;30.80
20866;DHT22;10593;48.398;10.698;2022-07-26T13:51:35;29.40;30.80
20866;DHT22;10593;48.398;10.698;2022-07-26T13:54:22;29.40;30.80
20866;DHT22;10593;48.398;10.698;2022-07-26T13:56:59;29.40;30.70
20866;DHT22;10593;48.398;10.698;2022-07-26T13:59:26;29.40;31.30
20866;DHT22;10593;48.398;10.698;2022-07-26T14:01:53;29.40;30.70
20866;DHT22;10593;48.398;10.698;2022-07-26T14:04:21;29.40;30.60
20866;DHT22;10593;48.398;10.698;2022-07-26T14:06:47;29.40;30.50
20866;DHT22;10593;48.398;10.698;2022-07-26T14:09:13;29.40;30.50
20866;DHT22;10593;48.398;10.698;2022-07-26T14:11:40;29.40;30.90
20866;DHT22;10593;48.398;10.698;2022-07-26T14:14:06;29.40;30.20
20866;DHT22;10593;48.398;10.698;2022-07-26T14:16:32;29.40;30.10
20866;DHT22;10593;48.398;10.698;2022-07-26T14:18:59;29.40;30.00
20866;DHT22;10593;48.398;10.698;2022-07-26T14:21:28;29.40;30.00
20866;DHT22;10593;48.398;10.698;2022-07-26T14:23:57;29.40;30.10
20866;DHT22;10593;48.398;10.698;2022-07-26T14:26:24;29.40;30.00
20866;DHT22;10593;48.398;10.698;2022-07-26T14:28:50;29.40;30.50
20866;DHT22;10593;48.398;10.698;2022-07-26T14:31:17;29.30;30.40
20866;DHT22;10593;48.398;10.698;2022-07-26T14:33:42;29.30;30.40
20866;DHT22;10593;48.398;10.698;2022-07-26T14:36:08;29.30;30.30
20866;DHT22;10593;48.398;10.698;2022-07-26T14:38:37;29.30;30.40
20866;DHT22;10593;48.398;10.698;2022-07-26T14:41:05;29.30;30.20
20866;DHT22;10593;48.398;10.698;2022-07-26T14:43:30;29.40;30.30
20866;DHT22;10593;48.398;10.698;2022-07-26T14:45:56;29.40;30.30
20866;DHT22;10593;48.398;10.698;2022-07-26T14:48:22;29.40;30.30
20866;DHT22;10593;48.398;10.698;2022-07-26T14:50:48;29.40;30.10
20866;DHT22;10593;48.398;10.698;2022-07-26T14:53:14;29.40;30.00
20866;DHT22;10593;48.398;10.698;2022-07-26T14:55:42;29.40;30.50
20866;DHT22;10593;48.398;10.698;2022-07-26T14:58:08;29.40;30.10
20866;DHT22;10593;48.398;10.698;2022-07-26T15:00:33;29.40;30.10
20866;DHT22;10593;48.398;10.698;2022-07-26T15:03:00;29.40;30.00
20866;DHT22;10593;48.398;10.698;2022-07-26T15:05:26;29.40;30.10
20866;DHT22;10593;48.398;10.698;2022-07-26T15:07:53;29.40;30.50
20866;DHT22;10593;48.398;10.698;2022-07-26T15:10:20;29.40;30.30
20866;DHT22;10593;48.398;10.698;2022-07-26T15:12:57;29.40;30.10
20866;DHT22;10593;48.398;10.698;2022-07-26T15:15:27;29.40;30.10
20866;DHT22;10593;48.398;10.698;2022-07-26T15:17:54;29.40;30.20
20866;DHT22;10593;48.398;10.698;2022-07-26T15:20:20;29.30;30.20
20866;DHT22;10593;48.398;10.698;2022-07-26T15:22:48;29.40;30.30
20866;DHT22;10593;48.398;10.698;2022-07-26T15:25:15;29.40;30.60
20866;DHT22;10593;48.398;10.698;2022-07-26T15:27:41;29.40;30.70
20866;DHT22;10593;48.398;10.698;2022-07-26T15:30:08;29.40;30.60
20866;DHT22;10593;48.398;10.698;2022-07-26T15:32:34;29.40;30.60
20866;DHT22;10593;48.398;10.698;2022-07-26T15:35:00;29.40;30.40
20866;DHT22;10593;48.398;10.698;2022-07-26T15:37:29;29.50;30.40
20866;DHT22;10593;48.398;10.698;2022-07-26T15:39:54;29.50;30.50
20866;DHT22;10593;48.398;10.698;2022-07-26T15:42:20;29.50;30.30
20866;DHT22;10593;48.398;10.698;2022-07-26T15:44:46;29.60;30.10
20866;DHT22;10593;48.398;10.698;2022-07-26T15:47:12;29.60;29.80